Time;durP1;ratioP1;P1;durP2;ratioP2;P2;SDS_P1;SDS_P2;PMS_P1;PMS_P2;Temp;Humidity;BMP_temperature;BMP_pressure;BME280_temperature;BME280_humidity;BME280_pressure;Samples;Min_cycle;Max_cycle;Signal;HPM_P1;HPM_P2
2023/04/07 00:00:33;;;;;;;17.33;10.07;;;;;;;6.13;47.84;101687.41;7393063;19;19998;-54
2023/04/07 00:03:01;;;;;;;17.48;10.95;;;;;;;6.15;47.46;101683.75;7391180;19;20007;-53
2023/04/07 00:05:26;;;;;;;18.63;10.77;;;;;;;6.11;47.91;101681.34;7389994;19;20002;-52
2023/04/07 00:07:52;;;;;;;17.27;10.90;;;;;;;6.04;48.21;101680.78;7391047;19;19999;-54
2023/04/07 00:10:17;;;;;;;17.27;10.38;;;;;;;5.98;48.57;101681.09;7391996;19;19995;-55
2023/04/07 00:12:43;;;;;;;19.58;10.40;;;;;;;6.06;48.09;101679.81;7390872;19;20027;-54
2023/04/07 00:15:09;;;;;;;20.33;11.10;;;;;;;6.09;48.31;101676.16;7391032;19;20002;-51
2023/04/07 00:17:35;;;;;;;17.05;11.30;;;;;;;5.93;48.66;101670.75;7390354;19;20009;-49
2023/04/07 00:20:00;;;;;;;17.60;10.77;;;;;;;5.98;48.42;101673.19;7391602;19;20530;-53
2023/04/07 00:22:26;;;;;;;20.95;11.65;;;;;;;5.82;49.00;101671.28;7390463;19;19998;-55
2023/04/07 00:24:52;;;;;;;20.67;12.00;;;;;;;5.69;49.39;101671.94;7390394;19;20002;-56
2023/04/07 00:27:17;;;;;;;19.33;11.55;;;;;;;5.78;49.56;101669.72;7388287;19;20459;-56
2023/04/07 00:29:45;;;;;;;21.60;12.27;;;;;;;5.84;49.33;101673.84;7391771;19;20002;-55
2023/04/07 00:32:10;;;;;;;21.45;12.52;;;;;;;5.60;49.89;101667.09;7389456;19;20017;-56
2023/04/07 00:34:36;;;;;;;20.70;11.60;;;;;;;5.63;49.87;101680.09;7390057;19;19995;-55
2023/04/07 00:37:01;;;;;;;19.48;11.40;;;;;;;5.55;49.79;101678.72;7391918;19;20002;-55
2023/04/07 00:39:27;;;;;;;17.05;11.60;;;;;;;5.45;50.41;101679.19;7389005;19;19999;-56
2023/04/07 00:41:53;;;;;;;17.75;11.27;;;;;;;5.50;50.40;101682.47;7389913;19;20471;-55
2023/04/07 00:44:18;;;;;;;20.65;12.43;;;;;;;5.49;50.45;101680.75;7391055;19;20002;-55
2023/04/07 00:46:46;;;;;;;21.92;13.20;;;;;;;5.44;50.69;101678.34;7387498;19;20498;-54
2023/04/07 00:49:12;;;;;;;19.25;12.77;;;;;;;5.34;50.58;101671.78;7387947;19;20016;-55
2023/04/07 00:51:38;;;;;;;20.65;12.52;;;;;;;5.19;51.50;101675.09;7389719;19;19990;-54
2023/04/07 00:54:04;;;;;;;18.80;12.57;;;;;;;5.36;51.29;101677.81;7390831;19;19998;-55
2023/04/07 00:56:32;;;;;;;18.48;12.43;;;;;;;5.42;50.63;101679.31;7390172;19;20038;-54
2023/04/07 00:58:58;;;;;;;19.40;12.45;;;;;;;5.43;50.46;101687.16;7389121;19;20008;-54
2023/04/07 01:01:39;;;;;;;20.42;12.48;;;;;;;5.46;50.54;101684.38;7389216;19;20062;-53
2023/04/07 01:04:25;;;;;;;18.77;11.85;;;;;;;5.42;50.56;101684.59;7391535;19;19994;-55
2023/04/07 01:06:57;;;;;;;19.83;12.18;;;;;;;5.36;50.77;101679.59;7394071;19;20010;-55
2023/04/07 01:09:35;;;;;;;19.70;13.10;;;;;;;5.21;51.00;101681.13;7395309;19;20075;-54
2023/04/07 01:12:28;;;;;;;21.83;12.57;;;;;;;5.07;51.37;101679.97;7395691;19;20002;-54
2023/04/07 01:14:59;;;;;;;19.13;12.27;;;;;;;5.03;51.67;101678.41;7394941;19;20455;-55
2023/04/07 01:17:27;;;;;;;17.35;11.63;;;;;;;5.20;51.04;101675.03;7397832;19;20003;-55
2023/04/07 01:19:58;;;;;;;19.17;11.75;;;;;;;5.08;51.34;101675.56;7398326;19;20006;-55
2023/04/07 01:22:40;;;;;;;17.90;11.57;;;;;;;4.88;51.93;101688.75;7396241;19;19999;-55
2023/04/07 01:25:29;;;;;;;18.08;11.35;;;;;;;5.01;51.61;101682.88;7397327;19;19994;-55
2023/04/07 01:28:01;;;;;;;18.48;11.30;;;;;;;5.12;51.23;101677.16;7397383;19;20011;-54
2023/04/07 01:30:37;;;;;;;18.85;11.60;;;;;;;5.00;51.22;101678.53;7398424;19;19998;-53
2023/04/07 01:33:05;;;;;;;16.80;10.40;;;;;;;5.00;51.54;101678.53;7394518;19;20011;-54
2023/04/07 01:35:33;;;;;;;20.02;11.45;;;;;;;5.09;51.04;101679.91;7396758;19;19999;-53
2023/04/07 01:38:00;;;;;;;20.30;11.75;;;;;;;5.08;51.06;101676.41;7396164;19;20010;-53
2023/04/07 01:40:28;;;;;;;20.60;11.93;;;;;;;5.15;50.64;101673.53;7397201;19;20011;-54
2023/04/07 01:42:56;;;;;;;17.35;12.32;;;;;;;5.15;50.53;101677.00;7394423;19;20009;-53
2023/04/07 01:45:22;;;;;;;16.70;11.23;;;;;;;4.95;51.24;101679.69;7394358;19;20006;-53
2023/04/07 01:47:49;;;;;;;17.65;11.43;;;;;;;5.08;50.89;101675.56;7395446;19;20011;-54
2023/04/07 01:50:15;;;;;;;20.13;12.80;;;;;;;5.04;51.12;101672.22;7397554;19;20005;-52
2023/04/07 01:52:41;;;;;;;19.08;12.63;;;;;;;4.97;50.99;101677.81;7395462;19;20006;-54
2023/04/07 01:55:08;;;;;;;17.40;11.07;;;;;;;5.12;50.73;101671.88;7396282;19;20010;-54
2023/04/07 01:57:34;;;;;;;20.98;11.52;;;;;;;5.14;50.74;101671.81;7395962;19;20006;-51
2023/04/07 02:00:00;;;;;;;18.83;11.20;;;;;;;5.16;50.35;101677.88;7396761;19;20001;-53
2023/04/07 02:02:26;;;;;;;17.13;10.63;;;;;;;5.11;50.78;101675.44;7396367;19;20873;-53
2023/04/07 02:04:55;;;;;;;19.92;11.82;;;;;;;4.93;51.12;101678.88;7395705;19;20017;-54
2023/04/07 02:07:29;;;;;;;18.83;12.43;;;;;;;4.87;51.45;101677.38;7393880;19;19998;-53
2023/04/07 02:09:57;;;;;;;19.75;11.93;;;;;;;4.91;51.40;101676.31;7396927;19;19991;-54
2023/04/07 02:12:28;;;;;;;19.70;12.88;;;;;;;4.92;50.96;101678.03;7395865;19;20006;-55
2023/04/07 02:14:55;;;;;;;18.55;12.10;;;;;;;4.85;51.29;101673.94;7396240;19;20036;-54
2023/04/07 02:17:26;;;;;;;18.13;11.68;;;;;;;4.82;51.09;101676.69;7394226;19;20062;-54
2023/04/07 02:19:52;;;;;;;16.45;11.25;;;;;;;4.86;51.13;101678.28;7396240;19;20012;-55
2023/04/07 02:22:18;;;;;;;18.70;11.45;;;;;;;4.91;50.94;101676.31;7394622;19;20003;-55
2023/04/07 02:24:44;;;;;;;18.30;11.05;;;;;;;4.76;51.51;101676.97;7395783;19;19998;-54
2023/04/07 02:27:10;;;;;;;15.95;11.40;;;;;;;4.65;51.81;101673.94;7393796;19;19999;-53
2023/04/07 02:29:39;;;;;;;18.27;11.00;;;;;;;4.77;51.32;101671.66;7395147;19;20333;-51
2023/04/07 02:32:05;;;;;;;17.27;10.43;;;;;;;4.83;51.17;101678.44;7393768;19;20006;-55
2023/04/07 02:34:31;;;;;;;20.40;10.45;;;;;;;4.83;51.31;101675.81;7393487;19;20006;-53
2023/04/07 02:36:56;;;;;;;19.83;11.52;;;;;;;4.84;51.35;101677.50;7395424;19;19994;-53
2023/04/07 02:39:28;;;;;;;18.60;10.90;;;;;;;4.82;51.13;101685.44;7393436;19;19991;-55
2023/04/07 02:41:53;;;;;;;16.95;10.50;;;;;;;4.83;51.05;101683.69;7394221;19;20006;-54
2023/04/07 02:44:19;;;;;;;15.93;10.48;;;;;;;4.84;51.11;101688.03;7394270;19;19998;-53
2023/04/07 02:46:44;;;;;;;20.80;11.43;;;;;;;4.75;51.30;101688.41;7393054;19;19990;-55
2023/04/07 02:49:10;;;;;;;17.75;10.57;;;;;;;4.68;51.41;101682.56;7392617;19;19991;-54
2023/04/07 02:51:36;;;;;;;16.08;10.95;;;;;;;4.73;51.23;101692.91;7392478;19;20502;-54
2023/04/07 02:54:01;;;;;;;16.85;10.82;;;;;;;4.63;51.30;101689.78;7395116;19;20007;-54
2023/04/07 02:56:27;;;;;;;17.58;10.90;;;;;;;4.58;51.47;101684.72;7393904;19;20538;-54
2023/04/07 02:58:52;;;;;;;16.52;10.88;;;;;;;4.66;51.35;101681.78;7393463;19;20458;-55
2023/04/07 03:01:18;;;;;;;17.35;11.60;;;;;;;4.56;51.24;101683.06;7394188;19;19995;-53
2023/04/07 03:03:46;;;;;;;17.05;11.57;;;;;;;4.40;52.06;101682.84;7394713;19;20007;-54
2023/04/07 03:06:13;;;;;;;20.08;11.45;;;;;;;4.41;52.37;101684.59;7390847;19;20348;-52
2023/04/07 03:08:39;;;;;;;17.50;11.02;;;;;;;4.25;52.58;101684.34;7392660;19;19994;-52
2023/04/07 03:11:04;;;;;;;15.25;10.45;;;;;;;4.18;53.01;101692.53;7394010;19;20023;-53
2023/04/07 03:13:31;;;;;;;17.45;11.23;;;;;;;4.24;52.92;101693.16;7393045;19;20050;-52
2023/04/07 03:15:57;;;;;;;18.33;12.25;;;;;;;4.26;52.98;101685.22;7391576;19;20340;-53
2023/04/07 03:18:22;;;;;;;17.65;11.48;;;;;;;4.12;53.82;101691.03;7393769;19;20022;-51
2023/04/07 03:20:48;;;;;;;17.55;11.98;;;;;;;3.98;54.43;101688.94;7391664;19;20026;-52
2023/04/07 03:23:13;;;;;;;23.42;11.85;;;;;;;4.05;54.45;101690.41;7392940;19;19995;-53
2023/04/07 03:25:40;;;;;;;17.27;11.60;;;;;;;3.92;54.54;101690.94;7393151;19;20003;-51
2023/04/07 03:28:05;;;;;;;18.50;11.20;;;;;;;3.79;54.76;101694.00;7392044;19;20009;-52
2023/04/07 03:30:31;;;;;;;16.48;10.90;;;;;;;3.70;54.96;101675.13;7392902;19;19995;-49
2023/04/07 03:32:56;;;;;;;17.02;11.52;;;;;;;3.68;54.88;101676.94;7391679;19;19998;-51
2023/04/07 03:35:22;;;;;;;17.65;11.70;;;;;;;3.68;54.72;101679.56;7392027;19;20087;-50
2023/04/07 03:37:47;;;;;;;18.35;11.68;;;;;;;3.87;54.55;101685.84;7393208;19;20073;-53
2023/04/07 03:40:13;;;;;;;17.08;10.93;;;;;;;3.93;54.13;101684.78;7394116;19;20035;-56
2023/04/07 03:42:39;;;;;;;16.75;10.88;;;;;;;3.88;54.18;101684.94;7391663;19;20082;-53
2023/04/07 03:45:05;;;;;;;15.60;11.15;;;;;;;3.76;54.40;101688.03;7392408;19;20030;-54
2023/04/07 03:47:30;;;;;;;18.70;11.40;;;;;;;3.63;54.89;101691.13;7391655;19;20118;-53
2023/04/07 03:49:56;;;;;;;17.33;11.80;;;;;;;3.68;54.81;101687.47;7390720;19;20003;-52
2023/04/07 03:52:21;;;;;;;19.10;11.93;;;;;;;3.64;54.75;101694.59;7392543;19;20568;-50
2023/04/07 03:54:47;;;;;;;17.98;12.20;;;;;;;3.69;54.47;101692.69;7392509;19;20068;-50
2023/04/07 03:57:13;;;;;;;18.10;11.90;;;;;;;3.66;54.72;101697.19;7392334;19;20005;-54
2023/04/07 03:59:38;;;;;;;18.75;11.65;;;;;;;3.72;54.35;101700.41;7390972;19;20015;-55
2023/04/07 04:02:10;;;;;;;17.80;11.60;;;;;;;3.71;54.27;101703.97;7391618;19;20061;-54
2023/04/07 04:04:36;;;;;;;18.67;11.73;;;;;;;3.79;54.35;101704.53;7392345;19;20023;-54
2023/04/07 04:07:01;;;;;;;16.42;11.07;;;;;;;3.68;54.37;101706.72;7390402;19;20986;-54
2023/04/07 04:09:27;;;;;;;16.60;11.73;;;;;;;3.78;54.26;101702.81;7388780;19;19999;-54
2023/04/07 04:11:52;;;;;;;18.90;13.15;;;;;;;3.77;54.23;101706.38;7389253;19;20009;-55
2023/04/07 04:14:18;;;;;;;16.90;11.77;;;;;;;3.77;54.59;101708.16;7391819;19;20003;-52
2023/04/07 04:16:44;;;;;;;20.67;12.02;;;;;;;3.76;54.29;101709.03;7390437;19;20470;-58
2023/04/07 04:19:09;;;;;;;18.98;12.30;;;;;;;3.65;54.75;101719.09;7390830;19;20007;-54
2023/04/07 04:21:35;;;;;;;18.25;12.48;;;;;;;3.70;54.54;101719.81;7391384;19;20006;-54
2023/04/07 04:24:00;;;;;;;17.52;12.48;;;;;;;3.49;55.43;101717.03;7391626;19;19998;-53
2023/04/07 04:26:28;;;;;;;18.45;12.20;;;;;;;3.56;55.04;101718.53;7390008;19;20005;-51
2023/04/07 04:28:53;;;;;;;17.27;12.05;;;;;;;3.55;55.24;101727.34;7388544;19;20006;-52
2023/04/07 04:31:19;;;;;;;18.73;12.40;;;;;;;3.67;54.73;101720.78;7391257;19;20340;-50
2023/04/07 04:33:45;;;;;;;17.88;11.80;;;;;;;3.50;55.16;101721.41;7388847;19;20074;-53
2023/04/07 04:36:10;;;;;;;18.35;11.48;;;;;;;3.48;55.35;101725.00;7390347;19;20003;-52
2023/04/07 04:38:36;;;;;;;17.23;11.80;;;;;;;3.42;55.57;101731.34;7389783;19;20002;-52
2023/04/07 04:41:02;;;;;;;18.63;11.93;;;;;;;3.40;55.74;101735.78;7388462;19;20085;-51
2023/04/07 04:43:27;;;;;;;18.50;12.05;;;;;;;3.44;55.82;101741.78;7390711;19;20019;-54
2023/04/07 04:45:53;;;;;;;17.08;11.55;;;;;;;3.54;55.17;101738.78;7390656;19;20315;-54
2023/04/07 04:48:18;;;;;;;16.73;11.95;;;;;;;3.46;55.69;101745.22;7390503;19;20006;-53
2023/04/07 04:50:44;;;;;;;18.55;11.07;;;;;;;3.50;55.45;101746.84;7391561;19;20035;-52
2023/04/07 04:53:09;;;;;;;17.92;11.98;;;;;;;3.52;55.17;101755.50;7391194;19;20010;-53
2023/04/07 04:55:35;;;;;;;17.80;12.25;;;;;;;3.58;55.11;101757.91;7390099;19;20005;-53
2023/04/07 04:58:01;;;;;;;17.65;12.38;;;;;;;3.48;55.43;101757.38;7390722;19;20511;-53
2023/04/07 05:00:27;;;;;;;17.58;12.05;;;;;;;3.56;55.14;101762.34;7388799;19;20063;-54
2023/04/07 05:02:53;;;;;;;20.92;12.80;;;;;;;3.55;55.27;101756.25;7388606;19;20007;-53
2023/04/07 05:05:19;;;;;;;19.10;12.13;;;;;;;3.56;55.13;101763.19;7390011;19;20011;-54
2023/04/07 05:07:45;;;;;;;18.25;12.52;;;;;;;3.56;55.32;101764.97;7388879;19;20003;-52
2023/04/07 05:10:11;;;;;;;17.35;11.60;;;;;;;3.55;55.11;101766.75;7391719;19;20470;-53
2023/04/07 05:12:37;;;;;;;19.70;12.75;;;;;;;3.54;55.45;101769.44;7389713;19;20003;-50
2023/04/07 05:15:02;;;;;;;17.80;12.50;;;;;;;3.47;55.78;101774.06;7389777;19;20005;-51
2023/04/07 05:17:28;;;;;;;18.48;12.27;;;;;;;3.45;55.70;101769.75;7390391;19;20078;-50
2023/04/07 05:19:53;;;;;;;18.58;12.13;;;;;;;3.54;55.37;101782.59;7390148;19;20023;-52
2023/04/07 05:22:19;;;;;;;19.80;13.05;;;;;;;3.49;55.46;101782.72;7388991;19;20013;-50
2023/04/07 05:24:45;;;;;;;21.40;13.55;;;;;;;3.35;56.17;101779.75;7389131;19;20443;-53
2023/04/07 05:27:10;;;;;;;18.73;12.43;;;;;;;3.43;55.73;101779.47;7388136;19;20003;-49
2023/04/07 05:29:36;;;;;;;20.08;12.93;;;;;;;3.35;55.87;101785.00;7389163;19;19999;-52
2023/04/07 05:32:04;;;;;;;20.92;13.68;;;;;;;3.31;56.43;101784.25;7388717;19;20034;-52
2023/04/07 05:34:30;;;;;;;18.73;12.88;;;;;;;3.51;55.84;101780.91;7389458;19;20003;-53
2023/04/07 05:36:55;;;;;;;19.70;13.68;;;;;;;3.53;55.48;101781.72;7387378;19;20003;-51
2023/04/07 05:39:21;;;;;;;20.70;13.07;;;;;;;3.50;55.34;101783.59;7388113;19;20342;-53
2023/04/07 05:41:46;;;;;;;20.17;12.38;;;;;;;3.60;55.39;101792.84;7388791;19;19991;-51
2023/04/07 05:44:12;;;;;;;16.80;12.05;;;;;;;3.59;55.53;101785.88;7389151;19;20006;-53
2023/04/07 05:46:38;;;;;;;17.60;12.13;;;;;;;3.74;55.08;101782.69;7386187;19;19995;-52
2023/04/07 05:49:03;;;;;;;16.33;11.65;;;;;;;3.76;54.96;101793.13;7385162;19;20007;-51
2023/04/07 05:51:30;;;;;;;17.17;12.38;;;;;;;3.68;55.14;101792.56;7390353;19;19994;-51
2023/04/07 05:53:58;;;;;;;20.23;13.10;;;;;;;3.65;55.27;101808.44;7393541;19;20483;-53
2023/04/07 05:56:23;;;;;;;17.67;12.18;;;;;;;3.80;54.97;101798.25;7395638;19;20003;-52
2023/04/07 05:58:49;;;;;;;17.38;11.80;;;;;;;3.95;54.46;101795.97;7392823;19;20039;-53
2023/04/07 06:01:14;;;;;;;17.25;12.45;;;;;;;4.04;54.42;101804.38;7397004;19;20022;-55
2023/04/07 06:03:40;;;;;;;22.40;12.20;;;;;;;4.05;54.31;101805.25;7395507;19;19995;-53
2023/04/07 06:06:06;;;;;;;17.25;12.07;;;;;;;4.08;54.54;101808.63;7394312;19;19999;-54
2023/04/07 06:08:31;;;;;;;19.40;12.63;;;;;;;4.10;54.21;101812.06;7394486;19;20026;-54
2023/04/07 06:10:57;;;;;;;19.10;12.43;;;;;;;4.19;54.09;101813.47;7395758;19;19994;-53
2023/04/07 06:13:22;;;;;;;17.42;12.10;;;;;;;4.29;53.63;101803.44;7395817;19;20030;-54
2023/04/07 06:15:48;;;;;;;18.83;11.93;;;;;;;4.32;52.99;101805.94;7394972;19;20467;-54
2023/04/07 06:18:13;;;;;;;17.48;11.38;;;;;;;4.28;52.87;101812.25;7393384;19;19999;-55
2023/04/07 06:20:39;;;;;;;17.23;11.68;;;;;;;4.38;52.85;101813.63;7393561;19;20005;-57
2023/04/07 06:23:05;;;;;;;18.02;11.35;;;;;;;4.42;52.87;101817.00;7394332;19;20014;-57
2023/04/07 06:25:31;;;;;;;17.00;11.65;;;;;;;4.51;52.50;101819.25;7387470;19;19998;-57
2023/04/07 06:27:56;;;;;;;16.85;11.23;;;;;;;4.52;52.34;101829.69;7393939;19;20005;-57
2023/04/07 06:30:22;;;;;;;16.98;11.70;;;;;;;4.56;52.08;101826.06;7395559;19;19998;-57
2023/04/07 06:32:47;;;;;;;17.90;11.75;;;;;;;4.56;52.17;101833.06;7392271;19;20095;-58
2023/04/07 06:35:13;;;;;;;18.25;11.40;;;;;;;4.63;52.00;101837.16;7392883;19;20002;-58
2023/04/07 06:37:39;;;;;;;17.88;11.23;;;;;;;4.72;51.49;101835.97;7394268;19;20522;-57
2023/04/07 06:40:07;;;;;;;16.08;10.85;;;;;;;4.78;51.07;101838.34;7394523;19;20009;-58
2023/04/07 06:42:33;;;;;;;17.80;12.15;;;;;;;4.87;51.19;101843.25;7393726;19;20010;-58
2023/04/07 06:44:58;;;;;;;17.20;11.48;;;;;;;4.89;50.96;101844.03;7392279;19;20011;-58
2023/04/07 06:47:24;;;;;;;15.98;10.88;;;;;;;4.98;51.11;101842.78;7392879;19;19995;-56
2023/04/07 06:49:50;;;;;;;16.90;10.77;;;;;;;5.08;50.77;101852.88;7392399;19;20403;-57
2023/04/07 06:52:15;;;;;;;18.08;11.90;;;;;;;5.09;50.61;101848.47;7393593;19;20007;-57
2023/04/07 06:54:41;;;;;;;16.80;11.35;;;;;;;5.19;50.47;101851.59;7391852;19;20002;-57
2023/04/07 06:57:10;;;;;;;20.73;11.85;;;;;;;5.25;50.34;101846.03;7394878;19;20026;-57
2023/04/07 06:59:37;;;;;;;18.73;11.48;;;;;;;5.31;50.38;101853.69;7395023;19;20006;-57
2023/04/07 07:02:03;;;;;;;16.92;11.18;;;;;;;5.39;50.27;101846.31;7392649;19;20340;-57
2023/04/07 07:04:28;;;;;;;16.60;11.00;;;;;;;5.31;49.83;101853.69;7393114;19;20003;-59
2023/04/07 07:06:54;;;;;;;16.00;10.75;;;;;;;5.35;49.84;101852.66;7392193;19;20007;-59
2023/04/07 07:09:20;;;;;;;20.08;11.38;;;;;;;5.43;49.40;101860.22;7391733;19;20002;-56
2023/04/07 07:11:46;;;;;;;16.63;10.95;;;;;;;5.44;49.42;101859.28;7392767;19;20009;-57
2023/04/07 07:14:12;;;;;;;16.35;10.98;;;;;;;5.55;49.44;101859.69;7394887;19;20075;-56
2023/04/07 07:16:38;;;;;;;16.75;11.80;;;;;;;5.63;49.45;101857.59;7396586;19;20024;-56
2023/04/07 07:19:03;;;;;;;17.25;11.00;;;;;;;5.75;49.13;101864.13;7394810;19;19999;-56
2023/04/07 07:21:30;;;;;;;17.45;11.35;;;;;;;5.78;49.44;101862.19;7397146;19;19994;-57
2023/04/07 07:23:56;;;;;;;17.70;11.93;;;;;;;5.82;49.89;101868.16;7396786;19;20002;-57
2023/04/07 07:26:21;;;;;;;18.05;11.48;;;;;;;5.80;49.96;101877.94;7395419;19;20007;-57
2023/04/07 07:28:47;;;;;;;17.15;11.35;;;;;;;5.85;50.23;101872.47;7394826;19;20035;-57
2023/04/07 07:31:14;;;;;;;16.50;11.45;;;;;;;5.90;49.77;101878.38;7397490;19;20061;-57
2023/04/07 07:33:42;;;;;;;16.50;10.50;;;;;;;5.94;49.99;101875.56;7394055;19;20007;-58
2023/04/07 07:36:16;;;;;;;15.65;10.20;;;;;;;5.93;49.25;101876.47;7394651;19;20550;-58
2023/04/07 07:38:41;;;;;;;15.85;10.52;;;;;;;6.10;49.03;101882.78;7395539;19;20027;-58
2023/04/07 07:41:07;;;;;;;15.57;10.38;;;;;;;6.15;49.08;101886.91;7396167;19;19998;-58
2023/04/07 07:43:33;;;;;;;15.57;10.55;;;;;;;6.20;49.18;101884.06;7395849;19;20022;-58
2023/04/07 07:45:58;;;;;;;17.55;10.80;;;;;;;6.25;49.24;101882.94;7394739;19;20002;-59
2023/04/07 07:48:24;;;;;;;15.77;10.27;;;;;;;6.31;49.06;101885.28;7394937;19;20360;-58
2023/04/07 07:50:51;;;;;;;16.13;9.70;;;;;;;6.35;48.98;101883.34;7395958;19;20010;-56
2023/04/07 07:53:17;;;;;;;17.42;10.40;;;;;;;6.38;48.72;101890.31;7396316;19;20034;-57
2023/04/07 07:55:42;;;;;;;17.15;10.73;;;;;;;6.46;49.00;101896.94;7395031;19;20005;-58
2023/04/07 07:58:08;;;;;;;18.67;10.68;;;;;;;6.50;48.59;101898.50;7395122;19;20320;-56
2023/04/07 08:00:34;;;;;;;15.30;10.45;;;;;;;6.56;48.13;101899.19;7395348;19;20359;-56
2023/04/07 08:02:59;;;;;;;17.48;10.68;;;;;;;6.60;47.42;101898.09;7395795;19;20007;-55
2023/04/07 08:05:28;;;;;;;18.17;11.90;;;;;;;6.66;47.41;101900.44;7395360;19;20006;-57
2023/04/07 08:07:54;;;;;;;14.90;9.95;;;;;;;6.76;47.00;101904.38;7393625;19;20014;-56
2023/04/07 08:10:20;;;;;;;17.20;11.55;;;;;;;6.76;47.20;101904.38;7393366;19;20003;-57
2023/04/07 08:12:46;;;;;;;16.00;10.50;;;;;;;6.81;47.42;101904.13;7394984;19;20002;-56
2023/04/07 08:15:14;;;;;;;16.20;9.52;;;;;;;6.89;47.09;101902.88;7392330;19;20006;-57
2023/04/07 08:17:40;;;;;;;15.38;9.20;;;;;;;6.92;47.03;101907.13;7393963;19;20015;-57
2023/04/07 08:20:10;;;;;;;15.50;9.52;;;;;;;6.94;46.60;101916.69;7395477;19;20010;-57
2023/04/07 08:22:35;;;;;;;18.50;10.15;;;;;;;6.94;46.49;101908.78;7393596;19;20003;-57
2023/04/07 08:25:01;;;;;;;17.40;9.20;;;;;;;7.00;45.62;101911.13;7392636;19;20343;-57
2023/04/07 08:27:30;;;;;;;14.68;9.10;;;;;;;7.02;45.58;101903.13;7390898;19;20120;-57
2023/04/07 08:30:05;;;;;;;15.98;9.07;;;;;;;7.13;44.70;101910.53;7395562;19;20058;-57
2023/04/07 08:32:40;;;;;;;16.27;9.50;;;;;;;7.23;44.62;101917.06;7392359;19;20066;-57
2023/04/07 08:35:06;;;;;;;17.45;9.40;;;;;;;7.34;44.91;101903.31;7391683;19;20513;-57
2023/04/07 08:37:32;;;;;;;14.20;8.80;;;;;;;7.37;44.18;101909.28;7392226;19;20011;-57
2023/04/07 08:39:59;;;;;;;14.15;8.75;;;;;;;7.43;44.06;101913.44;7394623;19;20062;-57
2023/04/07 08:42:29;;;;;;;13.20;8.25;;;;;;;7.51;43.31;101913.91;7393354;19;20374;-57
2023/04/07 08:44:57;;;;;;;13.60;8.68;;;;;;;7.63;43.38;101915.06;7392538;19;20014;-58
2023/04/07 08:47:26;;;;;;;13.98;8.32;;;;;;;7.71;43.28;101918.16;7392619;19;20011;-58
2023/04/07 08:49:55;;;;;;;13.93;8.13;;;;;;;7.80;41.72;101914.19;7391471;19;20013;-57
2023/04/07 08:52:31;;;;;;;15.27;8.27;;;;;;;7.83;40.85;101921.97;7391368;19;20494;-57
2023/04/07 08:55:01;;;;;;;15.27;8.30;;;;;;;7.88;40.67;101927.88;7391790;19;20306;-57
2023/04/07 08:57:29;;;;;;;15.52;7.88;;;;;;;7.86;40.80;101920.03;7393946;19;20009;-56
2023/04/07 09:00:06;;;;;;;14.70;7.20;;;;;;;7.92;40.99;101919.72;7392343;19;20006;-56
2023/04/07 09:02:32;;;;;;;13.55;7.43;;;;;;;8.01;40.96;101918.38;7392473;19;20356;-56
2023/04/07 09:04:59;;;;;;;17.27;8.23;;;;;;;8.04;40.09;101915.56;7392466;19;20014;-57
2023/04/07 09:07:25;;;;;;;12.90;7.85;;;;;;;8.08;39.96;101919.75;7392555;19;19999;-57
2023/04/07 09:09:51;;;;;;;12.10;8.05;;;;;;;8.10;39.79;101920.53;7392169;19;19994;-56
2023/04/07 09:12:17;;;;;;;11.75;7.70;;;;;;;8.18;39.92;101922.75;7391909;19;20002;-58
2023/04/07 09:14:42;;;;;;;15.85;7.68;;;;;;;8.16;39.75;101914.91;7393431;19;20335;-57
2023/04/07 09:17:08;;;;;;;15.30;8.30;;;;;;;8.23;39.30;101921.59;7392103;19;20086;-58
2023/04/07 09:19:34;;;;;;;13.52;8.45;;;;;;;8.29;38.96;101927.53;7388876;19;20007;-58
2023/04/07 09:21:59;;;;;;;14.85;7.38;;;;;;;8.36;39.01;101920.97;7392491;19;20015;-58
2023/04/07 09:24:28;;;;;;;11.65;6.68;;;;;;;8.43;38.72;101930.28;7390792;19;19998;-58
2023/04/07 09:27:10;;;;;;;13.88;7.32;;;;;;;8.53;39.22;101927.97;7394946;19;20027;-57
2023/04/07 09:29:36;;;;;;;13.88;7.93;;;;;;;8.57;39.68;101929.50;7400482;19;20019;-57
2023/04/07 09:32:02;;;;;;;12.32;7.25;;;;;;;8.67;38.31;101930.72;7399870;19;20058;-56
2023/04/07 09:34:36;;;;;;;13.57;8.18;;;;;;;8.71;38.63;101924.31;7395304;19;20003;-57
2023/04/07 09:37:03;;;;;;;16.63;7.97;;;;;;;8.77;39.05;101924.00;7399369;19;20017;-57
2023/04/07 09:39:29;;;;;;;13.60;7.25;;;;;;;8.83;38.29;101926.28;7395782;19;19999;-57
2023/04/07 09:41:56;;;;;;;13.85;7.35;;;;;;;8.91;38.27;101920.56;7400023;19;20009;-57
2023/04/07 09:44:24;;;;;;;12.85;7.43;;;;;;;8.95;37.92;101920.31;7399365;19;20032;-57
2023/04/07 09:46:53;;;;;;;14.50;7.38;;;;;;;8.97;37.79;101917.56;7398747;19;20019;-58
2023/04/07 09:49:20;;;;;;;11.93;7.13;;;;;;;8.93;37.46;101929.28;7396849;19;20017;-59
2023/04/07 09:51:56;;;;;;;12.55;7.63;;;;;;;8.96;37.23;101918.50;7398620;19;20098;-57
2023/04/07 09:54:37;;;;;;;13.48;7.53;;;;;;;9.03;38.05;101908.41;7396475;19;20547;-58
2023/04/07 09:57:04;;;;;;;12.40;7.40;;;;;;;9.06;37.79;101918.84;7399151;19;20031;-58
2023/04/07 09:59:31;;;;;;;12.73;7.22;;;;;;;9.09;37.53;101913.34;7395713;19;20017;-58
2023/04/07 10:01:58;;;;;;;12.23;7.65;;;;;;;9.18;37.40;101915.47;7397850;19;20026;-57
2023/04/07 10:04:27;;;;;;;14.75;7.22;;;;;;;9.22;38.19;101917.03;7399776;19;20010;-57
2023/04/07 10:06:54;;;;;;;16.45;7.47;;;;;;;9.14;37.90;101913.94;7398720;19;20010;-57
2023/04/07 10:09:22;;;;;;;13.95;7.07;;;;;;;9.13;37.63;101921.03;7394683;19;20474;-57
2023/04/07 10:11:50;;;;;;;18.75;7.72;;;;;;;9.13;37.41;101914.88;7398373;19;20003;-57
2023/04/07 10:14:17;;;;;;;11.68;6.97;;;;;;;9.15;38.06;101915.69;7396350;19;20007;-57
2023/04/07 10:16:43;;;;;;;12.23;7.00;;;;;;;9.23;37.16;101922.22;7399820;19;20014;-57
2023/04/07 10:19:10;;;;;;;16.02;7.00;;;;;;;9.28;37.71;101919.31;7396415;19;20486;-57
2023/04/07 10:21:41;;;;;;;13.13;6.90;;;;;;;9.30;37.21;101920.09;7396528;19;20022;-57
2023/04/07 10:24:30;;;;;;;12.52;7.00;;;;;;;9.33;36.29;101913.72;7395940;19;20002;-56
2023/04/07 10:27:03;;;;;;;14.25;7.75;;;;;;;9.50;36.59;101920.72;7397805;19;20025;-57
2023/04/07 10:29:34;;;;;;;13.30;7.80;;;;;;;9.49;36.09;101929.63;7394701;19;20339;-57
2023/04/07 10:32:02;;;;;;;12.00;7.00;;;;;;;9.50;36.18;101929.53;7397558;19;20039;-57
2023/04/07 10:34:47;;;;;;;12.57;7.00;;;;;;;9.60;36.15;101925.41;7395441;19;20077;-57
2023/04/07 10:37:16;;;;;;;11.82;6.90;;;;;;;9.69;36.39;101926.66;7397408;19;20043;-57
2023/04/07 10:39:42;;;;;;;11.13;6.70;;;;;;;9.69;36.98;101929.31;7396930;19;20015;-57
2023/04/07 10:42:36;;;;;;;12.38;7.03;;;;;;;9.69;36.64;101930.16;7397992;19;20010;-57
2023/04/07 10:45:03;;;;;;;12.13;6.70;;;;;;;9.71;37.42;101922.09;7397932;19;20006;-57
2023/04/07 10:47:29;;;;;;;13.25;7.38;;;;;;;9.70;37.34;101928.34;7395345;19;20019;-58
2023/04/07 10:50:19;;;;;;;13.25;7.03;;;;;;;9.71;36.25;101930.03;7398197;19;20320;-57
2023/04/07 10:52:47;;;;;;;11.30;6.38;;;;;;;9.69;36.87;101921.34;7397347;19;20011;-62
2023/04/07 10:55:31;;;;;;;12.27;6.57;;;;;;;9.70;36.83;101928.34;7397499;19;20018;-58
2023/04/07 10:58:29;;;;;;;;;;;;;;;9.73;36.12;101933.47;7398268;19;20027;-57
2023/04/07 11:01:10;;;;;;;12.82;6.95;;;;;;;9.72;36.45;101934.44;7394859;19;19915;-57
2023/04/07 11:03:41;;;;;;;11.98;6.05;;;;;;;9.69;36.96;101931.94;7394978;19;20093;-57
2023/04/07 11:06:13;;;;;;;11.50;6.32;;;;;;;9.82;36.50;101940.88;7396650;19;20003;-57
2023/04/07 11:08:43;;;;;;;12.95;6.82;;;;;;;9.85;36.64;101939.88;7396108;19;20472;-56
2023/04/07 11:11:10;;;;;;;14.80;7.20;;;;;;;9.83;36.04;101939.06;7395745;19;20003;-56
2023/04/07 11:13:43;;;;;;;11.73;6.95;;;;;;;9.82;36.25;101946.19;7394845;19;20054;-58
2023/04/07 11:16:10;;;;;;;12.43;7.32;;;;;;;9.94;36.90;101937.53;7391782;19;20078;-58
2023/04/07 11:18:36;;;;;;;11.93;6.80;;;;;;;10.11;36.82;101940.97;7390364;19;20412;-58
2023/04/07 11:21:04;;;;;;;13.23;6.82;;;;;;;10.13;36.69;101939.94;7394724;19;20086;-58